sensor_id;sensor_type;location;lat;lon;timestamp;P1;durP1;ratioP1;P2;durP2;ratioP2
71127;SDS011;59249;59.736;30.568;2023-12-04T00:00:10;30.60;;;12.25;;
71127;SDS011;59249;59.736;30.568;2023-12-04T00:02:44;29.77;;;11.23;;
71127;SDS011;59249;59.736;30.568;2023-12-04T00:05:13;29.55;;;11.63;;
71127;SDS011;59249;59.736;30.568;2023-12-04T00:07:42;29.70;;;10.57;;
71127;SDS011;59249;59.736;30.568;2023-12-04T00:10:11;29.55;;;11.85;;
71127;SDS011;59249;59.736;30.568;2023-12-04T00:12:41;28.27;;;9.93;;
71127;SDS011;59249;59.736;30.568;2023-12-04T00:15:11;27.43;;;10.80;;
71127;SDS011;59249;59.736;30.568;2023-12-04T00:17:40;30.50;;;9.82;;
71127;SDS011;59249;59.736;30.568;2023-12-04T00:20:09;30.00;;;11.48;;
71127;SDS011;59249;59.736;30.568;2023-12-04T00:22:38;33.35;;;11.95;;
71127;SDS011;59249;59.736;30.568;2023-12-04T00:25:08;35.65;;;12.18;;
71127;SDS011;59249;59.736;30.568;2023-12-04T00:27:42;27.23;;;11.33;;
71127;SDS011;59249;59.736;30.568;2023-12-04T00:30:11;24.63;;;10.48;;
71127;SDS011;59249;59.736;30.568;2023-12-04T00:32:39;27.83;;;10.63;;
71127;SDS011;59249;59.736;30.568;2023-12-04T00:35:11;31.50;;;11.35;;
71127;SDS011;59249;59.736;30.568;2023-12-04T00:37:41;26.50;;;10.90;;
71127;SDS011;59249;59.736;30.568;2023-12-04T00:40:14;29.13;;;11.23;;
71127;SDS011;59249;59.736;30.568;2023-12-04T00:42:46;32.55;;;11.63;;
71127;SDS011;59249;59.736;30.568;2023-12-04T00:45:18;30.42;;;10.90;;
71127;SDS011;59249;59.736;30.568;2023-12-04T00:47:47;26.77;;;10.57;;
71127;SDS011;59249;59.736;30.568;2023-12-04T00:50:18;24.17;;;10.45;;
71127;SDS011;59249;59.736;30.568;2023-12-04T00:52:49;23.90;;;9.37;;
71127;SDS011;59249;59.736;30.568;2023-12-04T00:55:19;24.08;;;10.18;;
71127;SDS011;59249;59.736;30.568;2023-12-04T00:57:50;27.85;;;9.57;;
71127;SDS011;59249;59.736;30.568;2023-12-04T01:00:19;26.80;;;9.38;;
71127;SDS011;59249;59.736;30.568;2023-12-04T01:02:51;29.95;;;10.55;;
71127;SDS011;59249;59.736;30.568;2023-12-04T01:05:23;26.03;;;8.70;;
71127;SDS011;59249;59.736;30.568;2023-12-04T01:07:57;26.75;;;9.95;;
71127;SDS011;59249;59.736;30.568;2023-12-04T01:10:27;24.08;;;9.82;;
71127;SDS011;59249;59.736;30.568;2023-12-04T01:13:01;19.08;;;7.55;;
71127;SDS011;59249;59.736;30.568;2023-12-04T01:15:34;26.85;;;10.40;;
71127;SDS011;59249;59.736;30.568;2023-12-04T01:18:20;30.70;;;10.87;;
71127;SDS011;59249;59.736;30.568;2023-12-04T01:20:52;29.38;;;9.88;;
71127;SDS011;59249;59.736;30.568;2023-12-04T01:23:21;20.58;;;9.20;;
71127;SDS011;59249;59.736;30.568;2023-12-04T01:25:53;25.60;;;10.07;;
71127;SDS011;59249;59.736;30.568;2023-12-04T01:28:27;20.10;;;8.50;;
71127;SDS011;59249;59.736;30.568;2023-12-04T01:30:57;27.37;;;10.00;;
71127;SDS011;59249;59.736;30.568;2023-12-04T01:33:29;26.52;;;8.70;;
71127;SDS011;59249;59.736;30.568;2023-12-04T01:35:59;28.25;;;9.43;;
71127;SDS011;59249;59.736;30.568;2023-12-04T01:38:28;21.58;;;8.32;;
71127;SDS011;59249;59.736;30.568;2023-12-04T01:40:57;14.85;;;6.25;;
71127;SDS011;59249;59.736;30.568;2023-12-04T01:43:30;25.70;;;7.57;;
71127;SDS011;59249;59.736;30.568;2023-12-04T01:45:59;29.15;;;9.95;;
71127;SDS011;59249;59.736;30.568;2023-12-04T01:48:28;21.52;;;8.27;;
71127;SDS011;59249;59.736;30.568;2023-12-04T01:50:59;18.95;;;7.55;;
71127;SDS011;59249;59.736;30.568;2023-12-04T01:53:34;18.98;;;7.75;;
71127;SDS011;59249;59.736;30.568;2023-12-04T01:56:07;22.70;;;9.13;;
71127;SDS011;59249;59.736;30.568;2023-12-04T01:58:39;21.77;;;8.48;;
71127;SDS011;59249;59.736;30.568;2023-12-04T02:01:07;22.63;;;8.05;;
71127;SDS011;59249;59.736;30.568;2023-12-04T02:03:39;21.92;;;7.68;;
71127;SDS011;59249;59.736;30.568;2023-12-04T02:06:10;18.85;;;7.88;;
71127;SDS011;59249;59.736;30.568;2023-12-04T02:08:41;21.40;;;7.97;;
71127;SDS011;59249;59.736;30.568;2023-12-04T02:11:11;21.52;;;7.07;;
71127;SDS011;59249;59.736;30.568;2023-12-04T02:13:41;21.00;;;7.53;;
71127;SDS011;59249;59.736;30.568;2023-12-04T02:16:11;24.48;;;8.50;;
71127;SDS011;59249;59.736;30.568;2023-12-04T02:18:43;24.38;;;8.18;;
71127;SDS011;59249;59.736;30.568;2023-12-04T02:21:12;25.13;;;6.63;;
71127;SDS011;59249;59.736;30.568;2023-12-04T02:23:41;20.48;;;6.78;;
71127;SDS011;59249;59.736;30.568;2023-12-04T02:26:13;22.50;;;8.60;;
71127;SDS011;59249;59.736;30.568;2023-12-04T02:28:47;23.23;;;8.80;;
71127;SDS011;59249;59.736;30.568;2023-12-04T02:31:23;25.95;;;8.73;;
71127;SDS011;59249;59.736;30.568;2023-12-04T02:33:53;20.93;;;8.47;;
71127;SDS011;59249;59.736;30.568;2023-12-04T02:36:25;18.92;;;7.88;;
71127;SDS011;59249;59.736;30.568;2023-12-04T02:38:57;19.60;;;8.52;;
71127;SDS011;59249;59.736;30.568;2023-12-04T02:41:28;19.90;;;8.10;;
71127;SDS011;59249;59.736;30.568;2023-12-04T02:44:00;17.33;;;5.63;;
71127;SDS011;59249;59.736;30.568;2023-12-04T02:46:32;14.83;;;5.23;;
71127;SDS011;59249;59.736;30.568;2023-12-04T02:49:01;21.88;;;8.23;;
71127;SDS011;59249;59.736;30.568;2023-12-04T02:51:40;20.25;;;7.63;;
71127;SDS011;59249;59.736;30.568;2023-12-04T02:54:09;24.90;;;8.40;;
71127;SDS011;59249;59.736;30.568;2023-12-04T02:56:40;18.65;;;6.93;;
71127;SDS011;59249;59.736;30.568;2023-12-04T02:59:15;19.27;;;7.20;;
71127;SDS011;59249;59.736;30.568;2023-12-04T03:01:49;19.67;;;6.15;;
71127;SDS011;59249;59.736;30.568;2023-12-04T03:04:20;12.95;;;4.93;;
71127;SDS011;59249;59.736;30.568;2023-12-04T03:06:51;17.17;;;6.40;;
71127;SDS011;59249;59.736;30.568;2023-12-04T03:09:22;17.00;;;5.63;;
71127;SDS011;59249;59.736;30.568;2023-12-04T03:12:17;18.10;;;6.27;;
71127;SDS011;59249;59.736;30.568;2023-12-04T03:14:54;21.95;;;7.47;;
71127;SDS011;59249;59.736;30.568;2023-12-04T03:17:33;17.65;;;6.38;;
71127;SDS011;59249;59.736;30.568;2023-12-04T03:20:13;13.75;;;5.20;;
71127;SDS011;59249;59.736;30.568;2023-12-04T03:22:43;14.65;;;6.03;;
71127;SDS011;59249;59.736;30.568;2023-12-04T03:25:13;16.47;;;5.17;;
71127;SDS011;59249;59.736;30.568;2023-12-04T03:27:46;12.63;;;5.65;;
71127;SDS011;59249;59.736;30.568;2023-12-04T03:30:17;16.58;;;5.38;;
71127;SDS011;59249;59.736;30.568;2023-12-04T03:32:48;12.60;;;4.95;;
71127;SDS011;59249;59.736;30.568;2023-12-04T03:35:23;13.57;;;4.95;;
71127;SDS011;59249;59.736;30.568;2023-12-04T03:37:52;13.80;;;5.27;;
71127;SDS011;59249;59.736;30.568;2023-12-04T03:40:24;13.25;;;3.92;;
71127;SDS011;59249;59.736;30.568;2023-12-04T03:43:12;9.32;;;4.15;;
71127;SDS011;59249;59.736;30.568;2023-12-04T03:45:43;17.90;;;5.20;;
71127;SDS011;59249;59.736;30.568;2023-12-04T03:48:12;14.07;;;5.53;;
71127;SDS011;59249;59.736;30.568;2023-12-04T03:50:41;14.63;;;5.30;;
71127;SDS011;59249;59.736;30.568;2023-12-04T03:53:10;9.70;;;4.45;;
71127;SDS011;59249;59.736;30.568;2023-12-04T03:55:41;16.90;;;5.97;;
71127;SDS011;59249;59.736;30.568;2023-12-04T03:58:15;9.48;;;3.53;;
71127;SDS011;59249;59.736;30.568;2023-12-04T04:00:58;12.57;;;3.88;;
71127;SDS011;59249;59.736;30.568;2023-12-04T04:03:28;9.47;;;3.60;;
71127;SDS011;59249;59.736;30.568;2023-12-04T04:06:12;7.90;;;2.50;;
71127;SDS011;59249;59.736;30.568;2023-12-04T04:08:41;12.23;;;4.50;;
71127;SDS011;59249;59.736;30.568;2023-12-04T04:11:10;12.35;;;3.92;;
71127;SDS011;59249;59.736;30.568;2023-12-04T04:13:41;10.27;;;4.10;;
71127;SDS011;59249;59.736;30.568;2023-12-04T04:16:12;12.63;;;4.27;;
71127;SDS011;59249;59.736;30.568;2023-12-04T04:18:43;13.75;;;4.75;;
71127;SDS011;59249;59.736;30.568;2023-12-04T04:21:12;11.80;;;5.13;;
71127;SDS011;59249;59.736;30.568;2023-12-04T04:23:42;12.60;;;4.22;;
71127;SDS011;59249;59.736;30.568;2023-12-04T04:26:12;15.73;;;5.55;;
71127;SDS011;59249;59.736;30.568;2023-12-04T04:28:45;17.57;;;6.57;;
71127;SDS011;59249;59.736;30.568;2023-12-04T04:31:14;11.23;;;4.18;;
71127;SDS011;59249;59.736;30.568;2023-12-04T04:33:43;14.93;;;5.38;;
71127;SDS011;59249;59.736;30.568;2023-12-04T04:36:14;14.48;;;5.75;;
71127;SDS011;59249;59.736;30.568;2023-12-04T04:38:52;14.40;;;5.20;;
71127;SDS011;59249;59.736;30.568;2023-12-04T04:41:36;12.97;;;4.57;;
71127;SDS011;59249;59.736;30.568;2023-12-04T04:44:06;13.73;;;5.10;;
71127;SDS011;59249;59.736;30.568;2023-12-04T04:46:35;12.88;;;4.55;;
71127;SDS011;59249;59.736;30.568;2023-12-04T04:49:04;13.32;;;4.25;;
71127;SDS011;59249;59.736;30.568;2023-12-04T04:51:34;12.45;;;4.00;;
71127;SDS011;59249;59.736;30.568;2023-12-04T04:54:03;8.73;;;4.40;;
71127;SDS011;59249;59.736;30.568;2023-12-04T04:56:33;14.95;;;4.88;;
71127;SDS011;59249;59.736;30.568;2023-12-04T04:59:02;11.88;;;4.75;;
71127;SDS011;59249;59.736;30.568;2023-12-04T05:01:37;14.32;;;5.18;;
71127;SDS011;59249;59.736;30.568;2023-12-04T05:04:06;12.27;;;4.32;;
71127;SDS011;59249;59.736;30.568;2023-12-04T05:06:38;14.50;;;5.50;;
71127;SDS011;59249;59.736;30.568;2023-12-04T05:09:12;16.42;;;5.90;;
71127;SDS011;59249;59.736;30.568;2023-12-04T05:11:41;15.32;;;4.90;;
71127;SDS011;59249;59.736;30.568;2023-12-04T05:14:13;14.40;;;4.40;;
71127;SDS011;59249;59.736;30.568;2023-12-04T05:16:43;15.07;;;4.82;;
71127;SDS011;59249;59.736;30.568;2023-12-04T05:19:19;12.13;;;5.13;;
71127;SDS011;59249;59.736;30.568;2023-12-04T05:21:53;14.07;;;5.53;;
71127;SDS011;59249;59.736;30.568;2023-12-04T05:24:32;9.45;;;3.40;;
71127;SDS011;59249;59.736;30.568;2023-12-04T05:27:06;11.98;;;4.82;;
71127;SDS011;59249;59.736;30.568;2023-12-04T05:29:36;10.45;;;3.28;;
71127;SDS011;59249;59.736;30.568;2023-12-04T05:32:10;17.63;;;5.37;;
71127;SDS011;59249;59.736;30.568;2023-12-04T05:34:40;11.80;;;3.72;;
71127;SDS011;59249;59.736;30.568;2023-12-04T05:37:09;15.48;;;5.50;;
71127;SDS011;59249;59.736;30.568;2023-12-04T05:39:38;13.30;;;4.82;;
71127;SDS011;59249;59.736;30.568;2023-12-04T05:42:09;12.93;;;5.50;;
71127;SDS011;59249;59.736;30.568;2023-12-04T05:44:44;18.67;;;6.47;;
71127;SDS011;59249;59.736;30.568;2023-12-04T05:47:20;13.20;;;4.45;;
71127;SDS011;59249;59.736;30.568;2023-12-04T05:50:06;16.92;;;5.63;;
71127;SDS011;59249;59.736;30.568;2023-12-04T05:52:48;14.80;;;5.82;;
71127;SDS011;59249;59.736;30.568;2023-12-04T05:55:26;9.90;;;3.63;;
71127;SDS011;59249;59.736;30.568;2023-12-04T05:57:55;12.10;;;4.07;;
71127;SDS011;59249;59.736;30.568;2023-12-04T06:00:24;13.25;;;4.68;;
71127;SDS011;59249;59.736;30.568;2023-12-04T06:02:56;14.88;;;5.63;;
71127;SDS011;59249;59.736;30.568;2023-12-04T06:05:25;22.20;;;7.78;;
71127;SDS011;59249;59.736;30.568;2023-12-04T06:07:55;13.07;;;5.18;;
71127;SDS011;59249;59.736;30.568;2023-12-04T06:10:25;14.97;;;4.67;;
71127;SDS011;59249;59.736;30.568;2023-12-04T06:12:53;13.43;;;5.07;;
71127;SDS011;59249;59.736;30.568;2023-12-04T06:15:22;20.60;;;6.80;;
71127;SDS011;59249;59.736;30.568;2023-12-04T06:17:51;16.75;;;6.25;;
71127;SDS011;59249;59.736;30.568;2023-12-04T06:20:22;13.98;;;4.20;;
71127;SDS011;59249;59.736;30.568;2023-12-04T06:22:51;20.00;;;7.33;;
71127;SDS011;59249;59.736;30.568;2023-12-04T06:25:21;22.17;;;7.25;;
71127;SDS011;59249;59.736;30.568;2023-12-04T06:27:51;20.75;;;8.32;;
71127;SDS011;59249;59.736;30.568;2023-12-04T06:30:21;19.02;;;6.68;;
71127;SDS011;59249;59.736;30.568;2023-12-04T06:32:51;13.75;;;5.50;;
71127;SDS011;59249;59.736;30.568;2023-12-04T06:35:23;15.80;;;6.73;;
71127;SDS011;59249;59.736;30.568;2023-12-04T06:38:03;14.93;;;5.47;;
71127;SDS011;59249;59.736;30.568;2023-12-04T06:40:39;17.08;;;5.78;;
71127;SDS011;59249;59.736;30.568;2023-12-04T06:43:25;15.98;;;5.97;;
71127;SDS011;59249;59.736;30.568;2023-12-04T06:45:56;20.77;;;6.60;;
71127;SDS011;59249;59.736;30.568;2023-12-04T06:48:26;12.70;;;5.50;;
71127;SDS011;59249;59.736;30.568;2023-12-04T06:50:57;19.73;;;7.43;;
71127;SDS011;59249;59.736;30.568;2023-12-04T06:53:27;19.30;;;6.50;;
71127;SDS011;59249;59.736;30.568;2023-12-04T06:55:56;13.73;;;4.97;;
71127;SDS011;59249;59.736;30.568;2023-12-04T06:58:24;15.82;;;6.50;;
71127;SDS011;59249;59.736;30.568;2023-12-04T07:00:53;13.63;;;5.57;;
71127;SDS011;59249;59.736;30.568;2023-12-04T07:03:22;15.90;;;6.53;;
71127;SDS011;59249;59.736;30.568;2023-12-04T07:05:51;11.63;;;4.75;;
71127;SDS011;59249;59.736;30.568;2023-12-04T07:08:22;16.30;;;5.95;;
71127;SDS011;59249;59.736;30.568;2023-12-04T07:10:51;27.27;;;8.15;;
71127;SDS011;59249;59.736;30.568;2023-12-04T07:13:30;20.23;;;7.20;;
71127;SDS011;59249;59.736;30.568;2023-12-04T07:16:08;18.00;;;6.53;;
71127;SDS011;59249;59.736;30.568;2023-12-04T07:18:40;18.38;;;6.25;;
71127;SDS011;59249;59.736;30.568;2023-12-04T07:21:10;19.48;;;7.22;;
71127;SDS011;59249;59.736;30.568;2023-12-04T07:23:42;17.25;;;4.70;;
71127;SDS011;59249;59.736;30.568;2023-12-04T07:26:19;15.43;;;5.80;;
71127;SDS011;59249;59.736;30.568;2023-12-04T07:28:55;15.48;;;4.45;;
71127;SDS011;59249;59.736;30.568;2023-12-04T07:31:30;15.02;;;6.30;;
71127;SDS011;59249;59.736;30.568;2023-12-04T07:34:01;19.60;;;7.28;;
71127;SDS011;59249;59.736;30.568;2023-12-04T07:36:39;19.95;;;7.13;;
71127;SDS011;59249;59.736;30.568;2023-12-04T07:39:13;22.87;;;6.90;;
71127;SDS011;59249;59.736;30.568;2023-12-04T07:41:45;21.60;;;6.78;;
71127;SDS011;59249;59.736;30.568;2023-12-04T07:44:18;16.90;;;5.25;;
71127;SDS011;59249;59.736;30.568;2023-12-04T07:46:47;18.73;;;6.63;;
71127;SDS011;59249;59.736;30.568;2023-12-04T07:49:18;19.50;;;6.85;;
71127;SDS011;59249;59.736;30.568;2023-12-04T07:51:47;17.80;;;6.87;;
71127;SDS011;59249;59.736;30.568;2023-12-04T07:54:17;16.88;;;5.95;;
71127;SDS011;59249;59.736;30.568;2023-12-04T07:56:46;14.73;;;6.20;;
71127;SDS011;59249;59.736;30.568;2023-12-04T07:59:15;21.65;;;7.70;;
71127;SDS011;59249;59.736;30.568;2023-12-04T08:01:44;14.23;;;5.38;;
71127;SDS011;59249;59.736;30.568;2023-12-04T08:04:14;15.07;;;5.53;;
71127;SDS011;59249;59.736;30.568;2023-12-04T08:06:43;12.88;;;4.68;;
71127;SDS011;59249;59.736;30.568;2023-12-04T08:09:12;17.38;;;5.72;;
71127;SDS011;59249;59.736;30.568;2023-12-04T08:11:42;17.75;;;6.72;;
71127;SDS011;59249;59.736;30.568;2023-12-04T08:14:11;18.38;;;7.10;;
71127;SDS011;59249;59.736;30.568;2023-12-04T08:16:40;18.17;;;7.73;;
71127;SDS011;59249;59.736;30.568;2023-12-04T08:19:10;19.35;;;5.93;;
71127;SDS011;59249;59.736;30.568;2023-12-04T08:21:39;20.48;;;7.55;;
71127;SDS011;59249;59.736;30.568;2023-12-04T08:24:08;18.40;;;6.53;;
71127;SDS011;59249;59.736;30.568;2023-12-04T08:26:37;23.60;;;10.75;;
71127;SDS011;59249;59.736;30.568;2023-12-04T08:29:08;20.57;;;8.17;;
71127;SDS011;59249;59.736;30.568;2023-12-04T08:31:37;21.05;;;6.70;;
71127;SDS011;59249;59.736;30.568;2023-12-04T08:34:06;22.85;;;6.78;;
71127;SDS011;59249;59.736;30.568;2023-12-04T08:36:35;29.17;;;8.02;;
71127;SDS011;59249;59.736;30.568;2023-12-04T08:39:12;18.77;;;5.28;;
71127;SDS011;59249;59.736;30.568;2023-12-04T08:41:44;17.27;;;6.97;;
71127;SDS011;59249;59.736;30.568;2023-12-04T08:44:28;24.13;;;8.70;;
71127;SDS011;59249;59.736;30.568;2023-12-04T08:46:58;21.75;;;8.25;;
71127;SDS011;59249;59.736;30.568;2023-12-04T08:49:27;20.38;;;8.52;;
71127;SDS011;59249;59.736;30.568;2023-12-04T08:52:08;20.80;;;7.90;;
71127;SDS011;59249;59.736;30.568;2023-12-04T08:54:39;26.73;;;9.23;;
71127;SDS011;59249;59.736;30.568;2023-12-04T08:57:09;25.42;;;7.90;;
71127;SDS011;59249;59.736;30.568;2023-12-04T08:59:39;16.05;;;6.95;;
71127;SDS011;59249;59.736;30.568;2023-12-04T09:02:12;16.95;;;6.90;;
71127;SDS011;59249;59.736;30.568;2023-12-04T09:04:48;22.73;;;8.52;;
71127;SDS011;59249;59.736;30.568;2023-12-04T09:07:20;22.53;;;8.33;;
71127;SDS011;59249;59.736;30.568;2023-12-04T09:09:53;22.23;;;7.82;;
71127;SDS011;59249;59.736;30.568;2023-12-04T09:12:22;25.02;;;8.48;;
71127;SDS011;59249;59.736;30.568;2023-12-04T09:14:54;21.20;;;7.30;;
71127;SDS011;59249;59.736;30.568;2023-12-04T09:17:23;24.67;;;8.48;;
71127;SDS011;59249;59.736;30.568;2023-12-04T09:19:58;20.10;;;6.93;;
71127;SDS011;59249;59.736;30.568;2023-12-04T09:22:29;24.73;;;7.50;;
71127;SDS011;59249;59.736;30.568;2023-12-04T09:25:14;21.77;;;8.93;;
71127;SDS011;59249;59.736;30.568;2023-12-04T09:27:43;19.17;;;7.32;;
71127;SDS011;59249;59.736;30.568;2023-12-04T09:30:14;24.63;;;8.57;;
71127;SDS011;59249;59.736;30.568;2023-12-04T09:32:43;30.10;;;9.30;;
71127;SDS011;59249;59.736;30.568;2023-12-04T09:35:12;21.23;;;7.65;;
71127;SDS011;59249;59.736;30.568;2023-12-04T09:37:42;23.95;;;8.40;;
71127;SDS011;59249;59.736;30.568;2023-12-04T09:40:12;15.13;;;5.82;;
71127;SDS011;59249;59.736;30.568;2023-12-04T09:42:43;12.32;;;5.13;;
71127;SDS011;59249;59.736;30.568;2023-12-04T09:45:14;23.93;;;9.30;;
71127;SDS011;59249;59.736;30.568;2023-12-04T09:47:44;19.02;;;7.32;;
71127;SDS011;59249;59.736;30.568;2023-12-04T09:50:18;19.05;;;7.53;;
71127;SDS011;59249;59.736;30.568;2023-12-04T09:52:49;21.95;;;8.23;;
71127;SDS011;59249;59.736;30.568;2023-12-04T09:55:20;25.48;;;8.15;;
71127;SDS011;59249;59.736;30.568;2023-12-04T09:57:52;22.17;;;7.50;;
71127;SDS011;59249;59.736;30.568;2023-12-04T10:00:27;17.48;;;6.13;;
71127;SDS011;59249;59.736;30.568;2023-12-04T10:02:59;21.83;;;7.88;;
71127;SDS011;59249;59.736;30.568;2023-12-04T10:05:31;25.35;;;8.80;;
71127;SDS011;59249;59.736;30.568;2023-12-04T10:08:00;22.80;;;8.75;;
71127;SDS011;59249;59.736;30.568;2023-12-04T10:10:29;18.93;;;7.50;;
71127;SDS011;59249;59.736;30.568;2023-12-04T10:13:01;23.67;;;8.23;;
71127;SDS011;59249;59.736;30.568;2023-12-04T10:15:32;28.63;;;9.18;;
71127;SDS011;59249;59.736;30.568;2023-12-04T10:18:01;22.75;;;7.10;;
71127;SDS011;59249;59.736;30.568;2023-12-04T10:20:30;19.48;;;7.60;;
71127;SDS011;59249;59.736;30.568;2023-12-04T10:23:01;25.63;;;8.80;;
71127;SDS011;59249;59.736;30.568;2023-12-04T10:25:31;19.63;;;7.32;;
71127;SDS011;59249;59.736;30.568;2023-12-04T10:28:07;20.30;;;7.45;;
71127;SDS011;59249;59.736;30.568;2023-12-04T10:30:40;17.02;;;6.40;;
71127;SDS011;59249;59.736;30.568;2023-12-04T10:33:10;22.90;;;7.70;;
71127;SDS011;59249;59.736;30.568;2023-12-04T10:35:41;22.20;;;6.90;;
71127;SDS011;59249;59.736;30.568;2023-12-04T10:38:11;25.02;;;7.13;;
71127;SDS011;59249;59.736;30.568;2023-12-04T10:40:41;23.63;;;8.52;;
71127;SDS011;59249;59.736;30.568;2023-12-04T10:43:12;23.80;;;8.65;;
71127;SDS011;59249;59.736;30.568;2023-12-04T10:45:47;19.88;;;6.90;;
71127;SDS011;59249;59.736;30.568;2023-12-04T10:48:18;16.03;;;5.67;;
71127;SDS011;59249;59.736;30.568;2023-12-04T10:50:48;20.73;;;7.47;;
71127;SDS011;59249;59.736;30.568;2023-12-04T10:53:18;21.35;;;7.55;;
71127;SDS011;59249;59.736;30.568;2023-12-04T10:55:47;24.40;;;8.98;;
71127;SDS011;59249;59.736;30.568;2023-12-04T10:58:23;26.15;;;8.40;;
71127;SDS011;59249;59.736;30.568;2023-12-04T11:00:56;18.90;;;5.97;;
71127;SDS011;59249;59.736;30.568;2023-12-04T11:03:32;25.52;;;7.57;;
71127;SDS011;59249;59.736;30.568;2023-12-04T11:06:09;22.48;;;8.35;;
71127;SDS011;59249;59.736;30.568;2023-12-04T11:08:41;32.38;;;8.80;;
71127;SDS011;59249;59.736;30.568;2023-12-04T11:11:15;28.88;;;8.05;;
71127;SDS011;59249;59.736;30.568;2023-12-04T11:13:50;25.80;;;8.17;;
71127;SDS011;59249;59.736;30.568;2023-12-04T11:16:29;25.17;;;7.97;;
71127;SDS011;59249;59.736;30.568;2023-12-04T11:19:10;32.40;;;10.38;;
71127;SDS011;59249;59.736;30.568;2023-12-04T11:21:46;19.67;;;7.00;;
71127;SDS011;59249;59.736;30.568;2023-12-04T11:24:17;25.65;;;9.45;;
71127;SDS011;59249;59.736;30.568;2023-12-04T11:26:48;31.43;;;10.33;;
71127;SDS011;59249;59.736;30.568;2023-12-04T11:29:18;22.92;;;9.30;;
71127;SDS011;59249;59.736;30.568;2023-12-04T11:31:50;25.92;;;9.27;;
71127;SDS011;59249;59.736;30.568;2023-12-04T11:34:19;18.85;;;7.97;;
71127;SDS011;59249;59.736;30.568;2023-12-04T11:36:48;29.23;;;10.35;;
71127;SDS011;59249;59.736;30.568;2023-12-04T11:39:21;23.00;;;7.50;;
71127;SDS011;59249;59.736;30.568;2023-12-04T11:41:50;27.85;;;8.57;;
71127;SDS011;59249;59.736;30.568;2023-12-04T11:44:19;27.88;;;8.75;;
71127;SDS011;59249;59.736;30.568;2023-12-04T11:46:56;30.10;;;9.80;;
71127;SDS011;59249;59.736;30.568;2023-12-04T11:49:32;15.70;;;7.80;;
71127;SDS011;59249;59.736;30.568;2023-12-04T11:52:03;26.70;;;9.27;;
71127;SDS011;59249;59.736;30.568;2023-12-04T11:57:32;23.83;;;9.57;;
71127;SDS011;59249;59.736;30.568;2023-12-04T12:03:03;19.73;;;6.97;;
71127;SDS011;59249;59.736;30.568;2023-12-04T12:05:49;28.07;;;10.30;;
71127;SDS011;59249;59.736;30.568;2023-12-04T12:08:20;25.63;;;9.35;;
71127;SDS011;59249;59.736;30.568;2023-12-04T12:10:52;24.58;;;10.30;;
71127;SDS011;59249;59.736;30.568;2023-12-04T12:13:22;29.38;;;10.48;;
71127;SDS011;59249;59.736;30.568;2023-12-04T12:15:53;21.50;;;8.10;;
71127;SDS011;59249;59.736;30.568;2023-12-04T12:18:27;24.60;;;8.30;;
71127;SDS011;59249;59.736;30.568;2023-12-04T12:20:56;29.63;;;9.27;;
71127;SDS011;59249;59.736;30.568;2023-12-04T12:23:27;32.83;;;10.63;;
71127;SDS011;59249;59.736;30.568;2023-12-04T12:25:57;25.08;;;8.93;;
71127;SDS011;59249;59.736;30.568;2023-12-04T12:28:30;32.42;;;9.60;;
71127;SDS011;59249;59.736;30.568;2023-12-04T12:31:01;27.00;;;11.30;;
71127;SDS011;59249;59.736;30.568;2023-12-04T12:33:39;27.67;;;10.02;;
71127;SDS011;59249;59.736;30.568;2023-12-04T12:36:08;34.55;;;12.20;;
71127;SDS011;59249;59.736;30.568;2023-12-04T12:38:39;25.85;;;10.57;;
71127;SDS011;59249;59.736;30.568;2023-12-04T12:41:10;32.65;;;10.23;;
71127;SDS011;59249;59.736;30.568;2023-12-04T12:43:39;28.47;;;11.90;;
71127;SDS011;59249;59.736;30.568;2023-12-04T12:46:08;28.63;;;10.65;;
71127;SDS011;59249;59.736;30.568;2023-12-04T12:48:40;27.33;;;8.82;;
71127;SDS011;59249;59.736;30.568;2023-12-04T12:51:11;32.15;;;9.35;;
71127;SDS011;59249;59.736;30.568;2023-12-04T12:53:43;28.48;;;10.38;;
71127;SDS011;59249;59.736;30.568;2023-12-04T12:56:18;33.87;;;11.13;;
71127;SDS011;59249;59.736;30.568;2023-12-04T12:58:48;33.50;;;12.05;;
71127;SDS011;59249;59.736;30.568;2023-12-04T13:01:18;31.83;;;10.93;;
71127;SDS011;59249;59.736;30.568;2023-12-04T13:03:49;33.25;;;10.27;;
71127;SDS011;59249;59.736;30.568;2023-12-04T13:06:18;31.55;;;10.70;;
71127;SDS011;59249;59.736;30.568;2023-12-04T13:08:47;28.97;;;10.77;;
71127;SDS011;59249;59.736;30.568;2023-12-04T13:11:16;33.15;;;12.07;;
71127;SDS011;59249;59.736;30.568;2023-12-04T13:13:45;33.17;;;11.05;;
71127;SDS011;59249;59.736;30.568;2023-12-04T13:16:14;20.95;;;7.93;;
71127;SDS011;59249;59.736;30.568;2023-12-04T13:18:44;35.35;;;11.23;;
71127;SDS011;59249;59.736;30.568;2023-12-04T13:21:14;31.87;;;9.40;;
71127;SDS011;59249;59.736;30.568;2023-12-04T13:23:43;27.63;;;10.77;;
71127;SDS011;59249;59.736;30.568;2023-12-04T13:26:12;40.17;;;11.30;;
71127;SDS011;59249;59.736;30.568;2023-12-04T13:28:42;31.20;;;9.68;;
71127;SDS011;59249;59.736;30.568;2023-12-04T13:31:11;29.25;;;9.95;;
71127;SDS011;59249;59.736;30.568;2023-12-04T13:33:40;34.57;;;11.63;;
71127;SDS011;59249;59.736;30.568;2023-12-04T13:36:14;28.70;;;8.73;;
71127;SDS011;59249;59.736;30.568;2023-12-04T13:38:43;27.05;;;10.68;;
71127;SDS011;59249;59.736;30.568;2023-12-04T13:41:19;33.53;;;9.80;;
71127;SDS011;59249;59.736;30.568;2023-12-04T13:44:02;33.33;;;10.85;;
71127;SDS011;59249;59.736;30.568;2023-12-04T13:46:32;33.17;;;10.90;;
71127;SDS011;59249;59.736;30.568;2023-12-04T13:49:02;37.28;;;13.13;;
71127;SDS011;59249;59.736;30.568;2023-12-04T13:51:35;26.65;;;9.30;;
71127;SDS011;59249;59.736;30.568;2023-12-04T13:54:07;19.05;;;7.28;;
71127;SDS011;59249;59.736;30.568;2023-12-04T13:56:47;29.30;;;10.70;;
71127;SDS011;59249;59.736;30.568;2023-12-04T13:59:23;38.50;;;12.00;;
71127;SDS011;59249;59.736;30.568;2023-12-04T14:01:54;32.50;;;10.65;;
71127;SDS011;59249;59.736;30.568;2023-12-04T14:04:27;33.28;;;10.35;;
71127;SDS011;59249;59.736;30.568;2023-12-04T14:06:59;34.25;;;10.85;;
71127;SDS011;59249;59.736;30.568;2023-12-04T14:09:31;39.78;;;11.48;;
71127;SDS011;59249;59.736;30.568;2023-12-04T14:12:03;36.60;;;12.00;;
71127;SDS011;59249;59.736;30.568;2023-12-04T14:14:32;36.83;;;12.35;;
71127;SDS011;59249;59.736;30.568;2023-12-04T14:17:01;40.13;;;13.02;;
71127;SDS011;59249;59.736;30.568;2023-12-04T14:19:31;33.65;;;11.60;;
71127;SDS011;59249;59.736;30.568;2023-12-04T14:22:01;34.22;;;10.30;;
71127;SDS011;59249;59.736;30.568;2023-12-04T14:24:30;34.47;;;11.53;;
71127;SDS011;59249;59.736;30.568;2023-12-04T14:27:00;17.98;;;7.20;;
71127;SDS011;59249;59.736;30.568;2023-12-04T14:29:29;43.05;;;14.23;;
71127;SDS011;59249;59.736;30.568;2023-12-04T14:31:58;33.63;;;10.50;;
71127;SDS011;59249;59.736;30.568;2023-12-04T14:34:27;31.33;;;12.20;;
71127;SDS011;59249;59.736;30.568;2023-12-04T14:36:56;19.07;;;6.57;;
71127;SDS011;59249;59.736;30.568;2023-12-04T14:39:27;37.90;;;13.73;;
71127;SDS011;59249;59.736;30.568;2023-12-04T14:41:56;37.47;;;12.60;;
71127;SDS011;59249;59.736;30.568;2023-12-04T14:44:25;35.30;;;11.60;;
71127;SDS011;59249;59.736;30.568;2023-12-04T14:46:54;32.80;;;11.05;;
71127;SDS011;59249;59.736;30.568;2023-12-04T14:49:23;42.77;;;11.40;;